Time;durP1;ratioP1;P1;durP2;ratioP2;P2;SDS_P1;SDS_P2;PMS_P1;PMS_P2;Temp;Humidity;BMP_temperature;BMP_pressure;BME280_temperature;BME280_humidity;BME280_pressure;Samples;Min_cycle;Max_cycle;Signal;HPM_P1;HPM_P2
2023/06/18 00:01:12;;;;;;;55.80;31.10;;;;;;;-128.00;-1.00;-1.00;103754;1252;1002403;-86
2023/06/18 00:03:38;;;;;;;59.30;31.80;;;;;;;-128.00;-1.00;-1.00;103668;1253;1002751;-85
2023/06/18 00:06:05;;;;;;;56.80;32.00;;;;;;;-128.00;-1.00;-1.00;103736;1253;1004128;-85
2023/06/18 00:08:33;;;;;;;52.20;28.60;;;;;;;-128.00;-1.00;-1.00;103783;1253;1012553;-86
2023/06/18 00:11:00;;;;;;;49.30;29.00;;;;;;;-128.00;-1.00;-1.00;103681;1255;1003292;-85
2023/06/18 00:13:28;;;;;;;44.30;25.90;;;;;;;-128.00;-1.00;-1.00;103748;1253;1002976;-88
2023/06/18 00:15:55;;;;;;;46.00;28.20;;;;;;;-128.00;-1.00;-1.00;103649;1258;1002619;-85
2023/06/18 00:18:21;;;;;;;45.00;25.30;;;;;;;-128.00;-1.00;-1.00;103735;1256;1002713;-85
2023/06/18 00:20:49;;;;;;;44.10;26.60;;;;;;;-128.00;-1.00;-1.00;103658;1254;1002407;-85
2023/06/18 00:23:16;;;;;;;38.70;23.90;;;;;;;-128.00;-1.00;-1.00;103880;1254;1002298;-87
2023/06/18 00:25:43;;;;;;;39.80;25.00;;;;;;;-128.00;-1.00;-1.00;106535;1252;1001955;-85
2023/06/18 00:28:09;;;;;;;42.20;25.80;;;;;;;-128.00;-1.00;-1.00;103780;1253;1002853;-87
2023/06/18 00:30:36;;;;;;;38.50;24.30;;;;;;;-128.00;-1.00;-1.00;103835;1251;1002873;-85
2023/06/18 00:33:03;;;;;;;36.40;24.40;;;;;;;-128.00;-1.00;-1.00;103793;1251;1002535;-86
2023/06/18 00:35:31;;;;;;;35.80;22.40;;;;;;;-128.00;-1.00;-1.00;103720;1251;1002374;-89
2023/06/18 00:37:59;;;;;;;36.00;23.10;;;;;;;-128.00;-1.00;-1.00;103748;1251;1002420;-86
2023/06/18 00:40:25;;;;;;;31.30;21.60;;;;;;;-128.00;-1.00;-1.00;103805;1251;1002174;-86
2023/06/18 00:42:55;;;;;;;32.90;20.40;;;;;;;-128.00;-1.00;-1.00;103798;1251;1002964;-85
2023/06/18 00:45:22;;;;;;;24.60;18.80;;;;;;;-128.00;-1.00;-1.00;103756;1251;1013311;-86
2023/06/18 00:47:49;;;;;;;27.60;19.80;;;;;;;-128.00;-1.00;-1.00;103813;1256;1002464;-87
2023/06/18 00:50:17;;;;;;;36.50;25.90;;;;;;;-128.00;-1.00;-1.00;103838;1251;1003923;-86
2023/06/18 00:52:47;;;;;;;35.30;24.40;;;;;;;-128.00;-1.00;-1.00;101846;1258;2268615;-86
2023/06/18 00:55:17;;;;;;;33.90;25.40;;;;;;;-128.00;-1.00;-1.00;103826;1255;1012633;-86
2023/06/18 00:57:49;;;;;;;33.30;24.60;;;;;;;-128.00;-1.00;-1.00;103734;1256;1012971;-86
2023/06/18 01:00:19;;;;;;;37.50;26.00;;;;;;;-128.00;-1.00;-1.00;103734;1254;1010362;-87
2023/06/18 01:02:49;;;;;;;35.90;29.00;;;;;;;-128.00;-1.00;-1.00;103629;1255;1011587;-86
2023/06/18 01:05:19;;;;;;;42.40;29.00;;;;;;;-128.00;-1.00;-1.00;103449;1253;1012111;-86
2023/06/18 01:07:50;;;;;;;43.90;28.00;;;;;;;-128.00;-1.00;-1.00;103746;1257;1012944;-86
2023/06/18 01:10:20;;;;;;;40.20;29.90;;;;;;;-128.00;-1.00;-1.00;103702;1253;1016817;-84
2023/06/18 01:12:48;;;;;;;33.50;25.60;;;;;;;-128.00;-1.00;-1.00;103526;1253;1009934;-85
2023/06/18 01:15:16;;;;;;;32.00;20.90;;;;;;;-128.00;-1.00;-1.00;103739;1256;1003182;-85
2023/06/18 01:17:46;;;;;;;20.40;18.20;;;;;;;-128.00;-1.00;-1.00;103719;1253;1002657;-85
2023/06/18 01:20:13;;;;;;;25.60;22.00;;;;;;;-128.00;-1.00;-1.00;103792;1256;1012074;-85
2023/06/18 01:23:03;;;;;;;32.00;20.80;;;;;;;-128.00;-1.00;-1.00;103719;1253;1003347;-86
2023/06/18 01:25:33;;;;;;;29.60;22.70;;;;;;;-128.00;-1.00;-1.00;103682;1252;1010130;-87
2023/06/18 01:28:07;;;;;;;29.50;21.50;;;;;;;-128.00;-1.00;-1.00;103599;1252;1011563;-85
2023/06/18 01:30:36;;;;;;;30.00;21.20;;;;;;;-128.00;-1.00;-1.00;103808;1256;1013376;-86
2023/06/18 01:33:03;;;;;;;26.40;20.50;;;;;;;-128.00;-1.00;-1.00;103802;1256;1002924;-86
2023/06/18 01:35:31;;;;;;;33.60;25.00;;;;;;;-128.00;-1.00;-1.00;103759;1251;1013295;-85
2023/06/18 01:38:01;;;;;;;32.50;25.00;;;;;;;-128.00;-1.00;-1.00;103666;1251;1004571;-87
2023/06/18 01:40:47;;;;;;;36.60;26.50;;;;;;;-128.00;-1.00;-1.00;103710;1251;1011287;-86
2023/06/18 01:43:38;;;;;;;37.90;27.60;;;;;;;-128.00;-1.00;-1.00;103538;1257;1013173;-86
2023/06/18 01:46:16;;;;;;;37.90;25.80;;;;;;;-128.00;-1.00;-1.00;103069;1263;1012477;-86
2023/06/18 01:49:01;;;;;;;31.60;22.70;;;;;;;-128.00;-1.00;-1.00;103088;1261;1013762;-88
2023/06/18 01:51:30;;;;;;;40.50;28.90;;;;;;;-128.00;-1.00;-1.00;103058;1261;1010656;-86
2023/06/18 01:53:57;;;;;;;43.60;27.50;;;;;;;-128.00;-1.00;-1.00;103026;1260;1002708;-85
2023/06/18 01:56:28;;;;;;;40.80;25.60;;;;;;;-128.00;-1.00;-1.00;103146;1260;1004031;-89
2023/06/18 01:58:55;;;;;;;43.10;24.80;;;;;;;-128.00;-1.00;-1.00;104675;1264;1016325;-86
2023/06/18 02:01:23;;;;;;;36.20;25.60;;;;;;;-128.00;-1.00;-1.00;104319;1265;1002753;-86
2023/06/18 02:03:50;;;;;;;37.30;25.00;;;;;;;-128.00;-1.00;-1.00;103209;1260;1002384;-84
2023/06/18 02:06:19;;;;;;;39.00;23.30;;;;;;;-128.00;-1.00;-1.00;103055;1259;1002213;-86
2023/06/18 02:08:46;;;;;;;41.80;27.70;;;;;;;-128.00;-1.00;-1.00;103291;1262;1012977;-85
2023/06/18 02:11:13;;;;;;;48.30;28.60;;;;;;;-128.00;-1.00;-1.00;103227;1263;1002249;-85
2023/06/18 02:13:40;;;;;;;35.70;27.10;;;;;;;-128.00;-1.00;-1.00;103238;1260;1002769;-85
2023/06/18 02:16:06;;;;;;;38.30;28.20;;;;;;;-128.00;-1.00;-1.00;103251;1260;1002163;-85
2023/06/18 02:18:35;;;;;;;39.90;27.90;;;;;;;-128.00;-1.00;-1.00;103244;1259;1014797;-86
2023/06/18 02:21:04;;;;;;;34.50;26.50;;;;;;;-128.00;-1.00;-1.00;103155;1260;1013176;-88
2023/06/18 02:23:31;;;;;;;40.60;26.60;;;;;;;-128.00;-1.00;-1.00;103379;1257;1002504;-86
2023/06/18 02:25:58;;;;;;;36.70;27.40;;;;;;;-128.00;-1.00;-1.00;103750;1256;1002350;-86
2023/06/18 02:28:25;;;;;;;46.60;29.90;;;;;;;-128.00;-1.00;-1.00;103834;1251;1010286;-85
2023/06/18 02:30:54;;;;;;;49.70;32.40;;;;;;;-128.00;-1.00;-1.00;103756;1251;1002811;-85
2023/06/18 02:33:23;;;;;;;62.40;34.60;;;;;;;-128.00;-1.00;-1.00;103857;1251;1012236;-86
2023/06/18 02:35:49;;;;;;;57.70;30.60;;;;;;;-128.00;-1.00;-1.00;103744;1256;1002613;-86
2023/06/18 02:38:16;;;;;;;45.20;31.10;;;;;;;-128.00;-1.00;-1.00;103739;1251;1002969;-86
2023/06/18 02:40:43;;;;;;;46.30;32.40;;;;;;;-128.00;-1.00;-1.00;103769;1251;1002720;-86
2023/06/18 02:43:10;;;;;;;67.20;31.20;;;;;;;-128.00;-1.00;-1.00;103764;1256;1003128;-87
2023/06/18 02:45:38;;;;;;;57.40;28.90;;;;;;;-128.00;-1.00;-1.00;103788;1255;1002195;-85
2023/06/18 02:48:04;;;;;;;35.10;26.50;;;;;;;-128.00;-1.00;-1.00;103810;1256;1002863;-87
2023/06/18 02:50:34;;;;;;;38.40;26.30;;;;;;;-128.00;-1.00;-1.00;103777;1251;1016914;-86
2023/06/18 02:53:01;;;;;;;44.10;27.90;;;;;;;-128.00;-1.00;-1.00;103609;1253;1003132;-85
2023/06/18 02:55:31;;;;;;;44.20;26.40;;;;;;;-128.00;-1.00;-1.00;103553;1251;1002645;-85
2023/06/18 02:57:58;;;;;;;46.60;26.80;;;;;;;-128.00;-1.00;-1.00;103593;1252;1012378;-86
2023/06/18 03:00:26;;;;;;;49.60;27.10;;;;;;;-128.00;-1.00;-1.00;103607;1255;1002784;-86
2023/06/18 03:02:53;;;;;;;73.70;28.70;;;;;;;-128.00;-1.00;-1.00;103515;1253;1004815;-86
2023/06/18 03:05:22;;;;;;;58.40;28.50;;;;;;;-128.00;-1.00;-1.00;103535;1253;1010154;-86
2023/06/18 03:07:50;;;;;;;44.70;30.20;;;;;;;-128.00;-1.00;-1.00;103710;1251;1002863;-85
2023/06/18 03:10:17;;;;;;;44.10;30.50;;;;;;;-128.00;-1.00;-1.00;103479;1257;1002253;-85
2023/06/18 03:12:46;;;;;;;60.50;28.60;;;;;;;-128.00;-1.00;-1.00;103814;1256;1013459;-86
2023/06/18 03:15:23;;;;;;;44.80;28.70;;;;;;;-128.00;-1.00;-1.00;103790;1251;1015157;-84
2023/06/18 03:17:50;;;;;;;37.60;27.80;;;;;;;-128.00;-1.00;-1.00;103515;1251;1002495;-86
2023/06/18 03:20:18;;;;;;;39.40;27.40;;;;;;;-128.00;-1.00;-1.00;103789;1251;1002228;-86
2023/06/18 03:22:46;;;;;;;51.80;29.70;;;;;;;-128.00;-1.00;-1.00;103485;1253;1014983;-86
2023/06/18 03:25:13;;;;;;;43.90;27.20;;;;;;;-128.00;-1.00;-1.00;103809;1255;1002419;-86
2023/06/18 03:27:42;;;;;;;230.40;43.10;;;;;;;-128.00;-1.00;-1.00;103917;1251;1002684;-86
2023/06/18 03:30:11;;;;;;;71.10;29.80;;;;;;;-128.00;-1.00;-1.00;103838;1256;1010176;-87
2023/06/18 03:32:38;;;;;;;53.80;27.90;;;;;;;-128.00;-1.00;-1.00;104249;1251;1011642;-85
2023/06/18 03:35:06;;;;;;;37.80;24.20;;;;;;;-128.00;-1.00;-1.00;105873;1255;1002507;-88
2023/06/18 03:37:34;;;;;;;46.40;24.60;;;;;;;-128.00;-1.00;-1.00;103731;1253;1012789;-86
2023/06/18 03:40:03;;;;;;;37.20;26.10;;;;;;;-128.00;-1.00;-1.00;103619;1253;1002903;-86
2023/06/18 03:42:30;;;;;;;26.20;20.00;;;;;;;-128.00;-1.00;-1.00;103740;1255;1010030;-86
2023/06/18 03:44:57;;;;;;;47.00;22.70;;;;;;;-128.00;-1.00;-1.00;103806;1251;1003487;-85
2023/06/18 03:47:24;;;;;;;34.30;21.80;;;;;;;-128.00;-1.00;-1.00;103566;1258;1002313;-85
2023/06/18 03:49:51;;;;;;;48.90;23.70;;;;;;;-128.00;-1.00;-1.00;103493;1257;1002880;-85
2023/06/18 03:52:18;;;;;;;44.80;24.00;;;;;;;-128.00;-1.00;-1.00;103515;1251;1002551;-86
2023/06/18 03:54:45;;;;;;;29.50;20.40;;;;;;;-128.00;-1.00;-1.00;103795;1251;1002676;-86
2023/06/18 03:57:12;;;;;;;38.10;20.30;;;;;;;-128.00;-1.00;-1.00;103768;1251;1004434;-85
2023/06/18 03:59:39;;;;;;;41.90;20.40;;;;;;;-128.00;-1.00;-1.00;103549;1257;1002561;-86
2023/06/18 04:02:06;;;;;;;37.50;21.30;;;;;;;-128.00;-1.00;-1.00;103847;1256;1002627;-86
2023/06/18 04:04:32;;;;;;;32.30;19.20;;;;;;;-128.00;-1.00;-1.00;103643;1251;1002443;-86
2023/06/18 04:06:59;;;;;;;30.00;19.30;;;;;;;-128.00;-1.00;-1.00;103599;1253;1002996;-86
2023/06/18 04:09:27;;;;;;;;;;;;;;;-128.00;-1.00;-1.00;103845;1251;1011326;-87
2023/06/18 04:11:54;;;;;;;33.80;19.10;;;;;;;-128.00;-1.00;-1.00;103678;1257;1002556;-87
2023/06/18 04:14:21;;;;;;;29.70;18.60;;;;;;;-128.00;-1.00;-1.00;103851;1251;1002679;-85
2023/06/18 04:16:48;;;;;;;35.10;20.10;;;;;;;-128.00;-1.00;-1.00;103951;1251;1002810;-86
2023/06/18 04:19:15;;;;;;;28.80;20.80;;;;;;;-128.00;-1.00;-1.00;103845;1251;1002595;-86
2023/06/18 04:21:42;;;;;;;43.00;22.20;;;;;;;-128.00;-1.00;-1.00;103917;1251;1003972;-85
2023/06/18 04:24:08;;;;;;;35.70;20.30;;;;;;;-128.00;-1.00;-1.00;103621;1253;1002650;-86
2023/06/18 04:26:36;;;;;;;34.80;17.40;;;;;;;-128.00;-1.00;-1.00;103725;1255;1002280;-86
2023/06/18 04:29:03;;;;;;;30.20;17.30;;;;;;;-128.00;-1.00;-1.00;103815;1251;1003027;-84
2023/06/18 04:31:30;;;;;;;113.90;21.50;;;;;;;-128.00;-1.00;-1.00;103469;1251;1002534;-86
2023/06/18 04:33:57;;;;;;;24.90;16.70;;;;;;;-128.00;-1.00;-1.00;103567;1251;1002337;-84
2023/06/18 04:36:25;;;;;;;;;;;;;;;-128.00;-1.00;-1.00;103781;1254;1013790;-84
2023/06/18 04:38:53;;;;;;;29.20;16.60;;;;;;;-128.00;-1.00;-1.00;103520;1251;1013381;-84
2023/06/18 04:41:21;;;;;;;21.60;15.90;;;;;;;-128.00;-1.00;-1.00;103790;1251;1002586;-84
2023/06/18 04:43:49;;;;;;;;;;;;;;;-128.00;-1.00;-1.00;103560;1251;1002769;-85
2023/06/18 04:46:16;;;;;;;22.60;14.50;;;;;;;-128.00;-1.00;-1.00;103738;1251;1002616;-84
2023/06/18 04:48:43;;;;;;;47.70;17.40;;;;;;;-128.00;-1.00;-1.00;103829;1256;1002794;-86
2023/06/18 04:51:09;;;;;;;39.40;15.90;;;;;;;-128.00;-1.00;-1.00;103409;1251;1002800;-83
2023/06/18 04:53:37;;;;;;;;;;;;;;;-128.00;-1.00;-1.00;103689;1251;1012679;-85
2023/06/18 04:56:05;;;;;;;21.20;15.50;;;;;;;-128.00;-1.00;-1.00;103606;1252;1002829;-85
2023/06/18 04:58:40;;;;;;;44.00;16.20;;;;;;;-128.00;-1.00;-1.00;103688;1253;1010854;-86
2023/06/18 05:01:08;;;;;;;26.30;16.00;;;;;;;-128.00;-1.00;-1.00;103424;1257;1013405;-82
2023/06/18 05:03:36;;;;;;;22.90;15.80;;;;;;;-128.00;-1.00;-1.00;103499;1256;1012901;-85
2023/06/18 05:06:03;;;;;;;27.00;15.50;;;;;;;-128.00;-1.00;-1.00;103688;1253;1003992;-85
2023/06/18 05:08:31;;;;;;;21.30;14.60;;;;;;;-128.00;-1.00;-1.00;106483;1252;1010871;-85
2023/06/18 05:10:59;;;;;;;23.10;14.20;;;;;;;-128.00;-1.00;-1.00;103733;1253;1003184;-85
2023/06/18 05:13:26;;;;;;;20.00;14.90;;;;;;;-128.00;-1.00;-1.00;103713;1253;1002866;-86
2023/06/18 05:15:53;;;;;;;17.70;14.30;;;;;;;-128.00;-1.00;-1.00;103718;1256;1003177;-85
2023/06/18 05:18:20;;;;;;;31.20;14.20;;;;;;;-128.00;-1.00;-1.00;103745;1254;1002705;-85
2023/06/18 05:20:47;;;;;;;25.10;14.90;;;;;;;-128.00;-1.00;-1.00;103729;1253;1004235;-85
2023/06/18 05:23:16;;;;;;;21.90;14.90;;;;;;;-128.00;-1.00;-1.00;103622;1252;1011747;-87
2023/06/18 05:25:43;;;;;;;32.30;13.80;;;;;;;-128.00;-1.00;-1.00;103523;1256;1003003;-82
2023/06/18 05:28:10;;;;;;;19.70;14.40;;;;;;;-128.00;-1.00;-1.00;103661;1258;1003078;-84
2023/06/18 05:30:43;;;;;;;16.90;14.20;;;;;;;-128.00;-1.00;-1.00;103780;1251;1012538;-84
2023/06/18 05:33:10;;;;;;;20.70;14.00;;;;;;;-128.00;-1.00;-1.00;103500;1251;1010441;-86
2023/06/18 05:35:38;;;;;;;20.40;14.00;;;;;;;-128.00;-1.00;-1.00;103826;1251;1002374;-85
2023/06/18 05:38:05;;;;;;;18.50;14.10;;;;;;;-128.00;-1.00;-1.00;103470;1260;1002974;-87
2023/06/18 05:40:32;;;;;;;25.50;13.90;;;;;;;-128.00;-1.00;-1.00;103518;1251;1002256;-84
2023/06/18 05:43:01;;;;;;;22.20;14.50;;;;;;;-128.00;-1.00;-1.00;103768;1251;1012249;-82
2023/06/18 05:45:30;;;;;;;35.40;15.90;;;;;;;-128.00;-1.00;-1.00;103720;1251;1011087;-84
2023/06/18 05:47:57;;;;;;;23.80;14.90;;;;;;;-128.00;-1.00;-1.00;103701;1251;1002981;-84
2023/06/18 05:50:37;;;;;;;16.70;14.60;;;;;;;-128.00;-1.00;-1.00;103635;1256;1013148;-82
2023/06/18 05:53:04;;;;;;;17.20;14.20;;;;;;;-128.00;-1.00;-1.00;103364;1256;1002205;-83
2023/06/18 05:55:31;;;;;;;18.50;13.20;;;;;;;-128.00;-1.00;-1.00;103651;1252;1002583;-81
2023/06/18 05:58:01;;;;;;;21.30;13.70;;;;;;;-128.00;-1.00;-1.00;103514;1253;1002395;-84
2023/06/18 06:00:30;;;;;;;22.30;14.20;;;;;;;-128.00;-1.00;-1.00;104018;1252;1011022;-86
2023/06/18 06:02:57;;;;;;;20.60;14.30;;;;;;;-128.00;-1.00;-1.00;103644;1253;1013751;-85
2023/06/18 06:05:24;;;;;;;18.60;14.60;;;;;;;-128.00;-1.00;-1.00;103532;1256;1004897;-82
2023/06/18 06:07:52;;;;;;;22.80;15.20;;;;;;;-128.00;-1.00;-1.00;103621;1253;1013573;-84
2023/06/18 06:10:19;;;;;;;18.80;14.70;;;;;;;-128.00;-1.00;-1.00;103600;1252;1002332;-84
2023/06/18 06:12:48;;;;;;;19.10;13.70;;;;;;;-128.00;-1.00;-1.00;103750;1253;1011812;-83
2023/06/18 06:15:16;;;;;;;26.40;14.00;;;;;;;-128.00;-1.00;-1.00;103672;1255;1002632;-83
2023/06/18 06:17:43;;;;;;;23.40;15.00;;;;;;;-128.00;-1.00;-1.00;103525;1256;1002454;-84
2023/06/18 06:20:12;;;;;;;;;;;;;;;-128.00;-1.00;-1.00;103710;1252;1003451;-83
2023/06/18 06:22:39;;;;;;;20.10;14.00;;;;;;;-128.00;-1.00;-1.00;103701;1253;1009696;-83
2023/06/18 06:25:08;;;;;;;21.00;13.60;;;;;;;-128.00;-1.00;-1.00;103572;1253;1003154;-85
2023/06/18 06:27:35;;;;;;;18.00;12.30;;;;;;;-128.00;-1.00;-1.00;103453;1253;1015293;-83
2023/06/18 06:30:03;;;;;;;15.00;13.40;;;;;;;-128.00;-1.00;-1.00;103748;1255;1002876;-84
2023/06/18 06:32:31;;;;;;;26.80;14.70;;;;;;;-128.00;-1.00;-1.00;103878;1251;1013098;-83
2023/06/18 06:34:58;;;;;;;17.90;14.00;;;;;;;-128.00;-1.00;-1.00;103966;1251;1002310;-85
2023/06/18 06:37:26;;;;;;;18.30;13.20;;;;;;;-128.00;-1.00;-1.00;103527;1251;1002972;-79
2023/06/18 06:39:54;;;;;;;15.60;13.60;;;;;;;-128.00;-1.00;-1.00;103604;1251;1012658;-86
2023/06/18 06:42:22;;;;;;;16.50;14.50;;;;;;;-128.00;-1.00;-1.00;105441;1251;1002431;-86
2023/06/18 06:45:09;;;;;;;19.30;13.20;;;;;;;-128.00;-1.00;-1.00;103698;1251;1015837;-82
2023/06/18 06:47:59;;;;;;;16.20;12.00;;;;;;;-128.00;-1.00;-1.00;103350;1252;1009924;-84
2023/06/18 06:50:38;;;;;;;25.40;13.70;;;;;;;-128.00;-1.00;-1.00;103699;1251;1010730;-81
2023/06/18 06:53:14;;;;;;;13.80;12.40;;;;;;;-128.00;-1.00;-1.00;103676;1256;1013402;-83
2023/06/18 06:55:41;;;;;;;16.10;13.40;;;;;;;-128.00;-1.00;-1.00;103572;1255;1002395;-84
2023/06/18 06:58:08;;;;;;;;;;;;;;;-128.00;-1.00;-1.00;103586;1251;1002342;-77
2023/06/18 07:00:35;;;;;;;16.00;13.90;;;;;;;-128.00;-1.00;-1.00;103667;1251;1002664;-76
2023/06/18 07:03:02;;;;;;;44.00;15.10;;;;;;;-128.00;-1.00;-1.00;103589;1251;1003257;-77
2023/06/18 07:05:30;;;;;;;16.60;13.60;;;;;;;-128.00;-1.00;-1.00;103335;1259;1003109;-76
2023/06/18 07:07:57;;;;;;;15.60;13.20;;;;;;;-128.00;-1.00;-1.00;103539;1251;1002834;-77
2023/06/18 07:10:23;;;;;;;20.40;13.70;;;;;;;-128.00;-1.00;-1.00;103523;1251;1004976;-76
2023/06/18 07:12:50;;;;;;;14.20;12.50;;;;;;;-128.00;-1.00;-1.00;103610;1251;1002714;-75
2023/06/18 07:15:17;;;;;;;17.80;12.30;;;;;;;-128.00;-1.00;-1.00;103527;1251;1003044;-79
2023/06/18 07:17:44;;;;;;;15.90;12.50;;;;;;;-128.00;-1.00;-1.00;103543;1251;1002664;-75
2023/06/18 07:20:11;;;;;;;13.70;12.30;;;;;;;-128.00;-1.00;-1.00;103564;1256;1002564;-75
2023/06/18 07:22:38;;;;;;;23.30;12.10;;;;;;;-128.00;-1.00;-1.00;103541;1251;1002829;-76
2023/06/18 07:25:06;;;;;;;18.80;11.20;;;;;;;-128.00;-1.00;-1.00;103533;1253;1002863;-77
2023/06/18 07:27:33;;;;;;;20.30;10.80;;;;;;;-128.00;-1.00;-1.00;103523;1251;1002485;-76
2023/06/18 07:30:00;;;;;;;10.40;8.50;;;;;;;-128.00;-1.00;-1.00;103549;1255;1002328;-75
2023/06/18 07:32:29;;;;;;;15.00;10.00;;;;;;;-128.00;-1.00;-1.00;103528;1255;1002748;-76
2023/06/18 07:34:55;;;;;;;13.90;9.00;;;;;;;-128.00;-1.00;-1.00;103515;1251;1002698;-77
2023/06/18 07:37:22;;;;;;;16.50;10.30;;;;;;;-128.00;-1.00;-1.00;103579;1251;1002939;-78
2023/06/18 07:39:49;;;;;;;18.20;10.80;;;;;;;-128.00;-1.00;-1.00;103491;1252;1002672;-76
2023/06/18 07:42:16;;;;;;;11.80;8.90;;;;;;;-128.00;-1.00;-1.00;103151;1259;1002833;-78
2023/06/18 07:44:43;;;;;;;17.30;10.90;;;;;;;-128.00;-1.00;-1.00;103486;1256;1002655;-77
2023/06/18 07:47:10;;;;;;;37.40;11.20;;;;;;;-128.00;-1.00;-1.00;103570;1256;1002832;-78
2023/06/18 07:49:37;;;;;;;12.30;9.90;;;;;;;-128.00;-1.00;-1.00;103534;1251;1002986;-77
2023/06/18 07:52:04;;;;;;;17.70;9.90;;;;;;;-128.00;-1.00;-1.00;103551;1251;1002946;-76
2023/06/18 07:54:34;;;;;;;10.60;8.60;;;;;;;-128.00;-1.00;-1.00;103507;1256;1002792;-77
2023/06/18 07:57:02;;;;;;;19.50;9.70;;;;;;;-128.00;-1.00;-1.00;103517;1256;1012797;-80
2023/06/18 07:59:29;;;;;;;9.50;8.50;;;;;;;-128.00;-1.00;-1.00;103540;1256;1002561;-77
2023/06/18 08:01:57;;;;;;;13.10;9.20;;;;;;;-128.00;-1.00;-1.00;103498;1251;1003943;-77
2023/06/18 08:04:23;;;;;;;16.30;9.50;;;;;;;-128.00;-1.00;-1.00;103496;1251;1011582;-76
2023/06/18 08:06:50;;;;;;;12.30;9.10;;;;;;;-128.00;-1.00;-1.00;103538;1251;1004284;-78
2023/06/18 08:09:17;;;;;;;11.50;9.40;;;;;;;-128.00;-1.00;-1.00;103528;1251;1004181;-74
2023/06/18 08:11:44;;;;;;;16.40;9.40;;;;;;;-128.00;-1.00;-1.00;103599;1251;1002847;-74
2023/06/18 08:14:11;;;;;;;12.70;8.50;;;;;;;-128.00;-1.00;-1.00;103522;1251;1002796;-77
2023/06/18 08:16:38;;;;;;;10.80;9.10;;;;;;;-128.00;-1.00;-1.00;103548;1251;1002470;-78
2023/06/18 08:19:05;;;;;;;14.50;8.90;;;;;;;-128.00;-1.00;-1.00;103368;1251;1004042;-75
2023/06/18 08:21:32;;;;;;;12.70;9.30;;;;;;;-128.00;-1.00;-1.00;103521;1256;1003056;-74
2023/06/18 08:23:59;;;;;;;12.10;8.10;;;;;;;-128.00;-1.00;-1.00;103537;1252;1002787;-76
2023/06/18 08:26:26;;;;;;;10.50;8.70;;;;;;;-128.00;-1.00;-1.00;103548;1251;1002521;-74
2023/06/18 08:28:52;;;;;;;15.80;9.90;;;;;;;-128.00;-1.00;-1.00;103300;1252;1002399;-76
2023/06/18 08:31:21;;;;;;;14.90;8.90;;;;;;;-128.00;-1.00;-1.00;103472;1256;1012888;-76
2023/06/18 08:33:49;;;;;;;10.00;8.80;;;;;;;-128.00;-1.00;-1.00;103543;1256;1002432;-75
2023/06/18 08:36:18;;;;;;;11.20;9.10;;;;;;;-128.00;-1.00;-1.00;103511;1253;1002693;-78
2023/06/18 08:38:45;;;;;;;11.30;8.70;;;;;;;-128.00;-1.00;-1.00;103617;1251;1010445;-78
2023/06/18 08:41:12;;;;;;;10.30;7.90;;;;;;;-128.00;-1.00;-1.00;103499;1253;1002644;-75
2023/06/18 08:43:39;;;;;;;;;;;;;;;-128.00;-1.00;-1.00;103532;1256;1002482;-76
2023/06/18 08:46:10;;;;;;;13.90;9.20;;;;;;;-128.00;-1.00;-1.00;103485;1251;1002721;-75
2023/06/18 08:48:45;;;;;;;8.90;8.00;;;;;;;-128.00;-1.00;-1.00;103525;1253;1013150;-76
2023/06/18 08:51:12;;;;;;;13.60;8.20;;;;;;;-128.00;-1.00;-1.00;102955;1253;1011426;-76
2023/06/18 08:53:46;;;;;;;;;;;;;;;-128.00;-1.00;-1.00;103536;1252;1002503;-76
2023/06/18 08:56:14;;;;;;;9.60;8.10;;;;;;;-128.00;-1.00;-1.00;103532;1256;1012854;-76
2023/06/18 08:58:47;;;;;;;11.00;7.80;;;;;;;-128.00;-1.00;-1.00;103534;1255;1013117;-77
2023/06/18 09:01:15;;;;;;;11.20;7.00;;;;;;;-128.00;-1.00;-1.00;103602;1253;1012694;-78
2023/06/18 09:03:42;;;;;;;13.20;8.50;;;;;;;-128.00;-1.00;-1.00;103452;1252;1003175;-77
2023/06/18 09:06:10;;;;;;;11.10;7.80;;;;;;;-128.00;-1.00;-1.00;103303;1259;1002420;-80
2023/06/18 09:08:37;;;;;;;13.00;7.40;;;;;;;-128.00;-1.00;-1.00;103361;1259;1002597;-83
2023/06/18 09:11:05;;;;;;;8.10;6.60;;;;;;;-128.00;-1.00;-1.00;103537;1255;1003031;-77
2023/06/18 09:13:33;;;;;;;9.10;6.50;;;;;;;-128.00;-1.00;-1.00;103305;1252;1002997;-77
2023/06/18 09:16:00;;;;;;;10.40;6.60;;;;;;;-128.00;-1.00;-1.00;103568;1252;1002148;-76
2023/06/18 09:18:26;;;;;;;;;;;;;;;-128.00;-1.00;-1.00;103577;1253;1002698;-77
2023/06/18 09:20:53;;;;;;;11.30;6.50;;;;;;;-128.00;-1.00;-1.00;103422;1253;1002745;-74
2023/06/18 09:23:20;;;;;;;7.10;6.30;;;;;;;-128.00;-1.00;-1.00;103486;1254;1002924;-78
2023/06/18 09:25:54;;;;;;;13.10;6.80;;;;;;;-128.00;-1.00;-1.00;103506;1253;1002929;-75
2023/06/18 09:28:23;;;;;;;11.50;6.90;;;;;;;-128.00;-1.00;-1.00;103531;1255;1010679;-78
2023/06/18 09:30:51;;;;;;;9.00;6.70;;;;;;;-128.00;-1.00;-1.00;103466;1253;1002735;-79
2023/06/18 09:33:31;;;;;;;9.00;7.10;;;;;;;-128.00;-1.00;-1.00;103531;1251;1013634;-75
2023/06/18 09:36:02;;;;;;;9.50;8.10;;;;;;;-128.00;-1.00;-1.00;103554;1251;1012402;-75
2023/06/18 09:38:39;;;;;;;12.70;8.80;;;;;;;-128.00;-1.00;-1.00;103619;1251;1013296;-76
2023/06/18 09:41:16;;;;;;;11.70;8.70;;;;;;;-128.00;-1.00;-1.00;103160;1257;1011530;-79
2023/06/18 09:43:48;;;;;;;15.20;8.50;;;;;;;-128.00;-1.00;-1.00;103280;1256;1011958;-78
2023/06/18 09:46:15;;;;;;;10.40;6.70;;;;;;;-128.00;-1.00;-1.00;103205;1259;1012991;-78
2023/06/18 09:48:45;;;;;;;6.00;5.40;;;;;;;-128.00;-1.00;-1.00;103162;1256;1012860;-81
2023/06/18 09:51:15;;;;;;;12.10;6.20;;;;;;;-128.00;-1.00;-1.00;103250;1257;1012637;-75
2023/06/18 09:53:43;;;;;;;16.40;6.10;;;;;;;-128.00;-1.00;-1.00;103248;1257;1009894;-79
2023/06/18 09:56:14;;;;;;;15.30;6.20;;;;;;;-128.00;-1.00;-1.00;103225;1257;1002651;-76
2023/06/18 09:58:51;;;;;;;9.00;5.70;;;;;;;-128.00;-1.00;-1.00;103265;1259;1012850;-74
2023/06/18 10:01:19;;;;;;;84.10;13.30;;;;;;;-128.00;-1.00;-1.00;102930;1259;1012992;-75
2023/06/18 10:03:46;;;;;;;9.60;7.30;;;;;;;-128.00;-1.00;-1.00;103193;1257;1002299;-75
2023/06/18 10:06:16;;;;;;;;;;;;;;;-128.00;-1.00;-1.00;103267;1257;1002901;-77
2023/06/18 10:08:45;;;;;;;9.90;6.60;;;;;;;-128.00;-1.00;-1.00;102992;1256;1011402;-74
2023/06/18 10:11:13;;;;;;;9.70;6.70;;;;;;;-128.00;-1.00;-1.00;103228;1257;1012462;-78
2023/06/18 10:13:47;;;;;;;11.20;7.70;;;;;;;-128.00;-1.00;-1.00;103551;1257;1012274;-76
2023/06/18 10:16:16;;;;;;;7.90;6.80;;;;;;;-128.00;-1.00;-1.00;103356;1251;1012896;-74
2023/06/18 10:18:51;;;;;;;9.80;7.00;;;;;;;-128.00;-1.00;-1.00;103533;1251;1013039;-79
2023/06/18 10:21:19;;;;;;;9.60;7.00;;;;;;;-128.00;-1.00;-1.00;103563;1253;1011587;-74
2023/06/18 10:23:46;;;;;;;8.80;6.40;;;;;;;-128.00;-1.00;-1.00;103582;1251;1002502;-75
2023/06/18 10:26:13;;;;;;;9.50;7.10;;;;;;;-128.00;-1.00;-1.00;103547;1254;1002801;-77
2023/06/18 10:28:40;;;;;;;11.50;6.30;;;;;;;-128.00;-1.00;-1.00;103479;1254;1002444;-73
2023/06/18 10:31:07;;;;;;;9.90;6.60;;;;;;;-128.00;-1.00;-1.00;103468;1256;1002401;-75
2023/06/18 10:33:36;;;;;;;8.50;6.80;;;;;;;-128.00;-1.00;-1.00;103605;1251;1010921;-77
2023/06/18 10:36:03;;;;;;;12.40;6.70;;;;;;;-128.00;-1.00;-1.00;103169;1260;1001952;-79
2023/06/18 10:38:30;;;;;;;7.70;6.90;;;;;;;-128.00;-1.00;-1.00;103168;1256;1002944;-79
2023/06/18 10:41:09;;;;;;;9.20;6.60;;;;;;;-128.00;-1.00;-1.00;103225;1256;1002692;-77
2023/06/18 10:43:40;;;;;;;8.90;6.20;;;;;;;-128.00;-1.00;-1.00;103141;1256;1009414;-78
2023/06/18 10:46:12;;;;;;;10.20;6.60;;;;;;;-128.00;-1.00;-1.00;103239;1256;1010415;-77
2023/06/18 10:48:39;;;;;;;9.50;6.30;;;;;;;-128.00;-1.00;-1.00;103170;1262;1012577;-76
2023/06/18 10:51:13;;;;;;;13.90;6.90;;;;;;;-128.00;-1.00;-1.00;103233;1261;1002361;-76
2023/06/18 10:53:44;;;;;;;8.40;6.90;;;;;;;-128.00;-1.00;-1.00;102994;1259;1012388;-76
2023/06/18 10:56:14;;;;;;;18.00;7.50;;;;;;;-128.00;-1.00;-1.00;103113;1256;1011476;-75
2023/06/18 10:58:42;;;;;;;10.40;7.30;;;;;;;-128.00;-1.00;-1.00;103077;1258;1011000;-78
2023/06/18 11:01:25;;;;;;;;;;;;;;;-128.00;-1.00;-1.00;103380;1260;1002540;-76
2023/06/18 11:04:02;;;;;;;7.70;6.90;;;;;;;-128.00;-1.00;-1.00;103226;1261;1012832;-77
2023/06/18 11:06:29;;;;;;;;;;;;;;;-128.00;-1.00;-1.00;103220;1256;1012432;-76
2023/06/18 11:08:56;;;;;;;9.70;7.10;;;;;;;-128.00;-1.00;-1.00;103561;1252;1002895;-76
2023/06/18 11:11:24;;;;;;;7.10;6.40;;;;;;;-128.00;-1.00;-1.00;103562;1253;1002774;-78
2023/06/18 11:13:53;;;;;;;8.90;6.90;;;;;;;-128.00;-1.00;-1.00;103593;1256;1002964;-75